Time;durP1;ratioP1;P1;durP2;ratioP2;P2;SDS_P1;SDS_P2;PMS_P1;PMS_P2;Temp;Humidity;BMP_temperature;BMP_pressure;BME280_temperature;BME280_humidity;BME280_pressure;Samples;Min_cycle;Max_cycle;Signal;HPM_P1;HPM_P2
2021/12/29 00:00:27;;;;;;;21.38;8.82;;;;;;;;;;8324303;28;20052;-75
2021/12/29 00:04:42;;;;;;;19.90;9.43;;;;;;;;;;8324556;28;20217;-74
2021/12/29 00:08:45;;;;;;;19.15;9.50;;;;;;;;;;8336811;28;20124;-74
2021/12/29 00:12:51;;;;;;;31.10;8.90;;;;;;;;;;8336734;28;20049;-74
2021/12/29 00:16:56;;;;;;;19.83;9.32;;;;;;;;;;8337025;28;20091;-74
2021/12/29 00:21:02;;;;;;;19.60;8.75;;;;;;;;;;8335718;28;20093;-75
2021/12/29 00:25:06;;;;;;;21.75;9.60;;;;;;;;;;8336761;28;20504;-75
2021/12/29 00:29:09;;;;;;;19.75;9.15;;;;;;;;;;8319977;28;20042;-76
2021/12/29 00:33:11;;;;;;;23.90;10.50;;;;;;;;;;8324300;28;20044;-76
2021/12/29 00:37:16;;;;;;;25.00;10.63;;;;;;;;;;8328035;28;20041;-75
2021/12/29 00:41:19;;;;;;;21.48;10.60;;;;;;;;;;8316518;28;20054;-75
2021/12/29 00:45:21;;;;;;;21.88;9.85;;;;;;;;;;8318443;28;20064;-75
2021/12/29 00:49:30;;;;;;;26.00;11.35;;;;;;;;;;8325468;28;20049;-75
2021/12/29 00:53:35;;;;;;;29.95;9.65;;;;;;;;;;8320323;28;20095;-75
2021/12/29 00:57:39;;;;;;;30.77;10.10;;;;;;;;;;8326788;28;20041;-75
2021/12/29 01:01:42;;;;;;;22.60;10.48;;;;;;;;;;8327512;28;20304;-76
2021/12/29 01:05:44;;;;;;;20.20;9.63;;;;;;;;;;8335262;28;20373;-75
2021/12/29 01:09:49;;;;;;;23.25;11.18;;;;;;;;;;8184971;28;70547;-75
2021/12/29 01:13:52;;;;;;;19.73;9.55;;;;;;;;;;8259090;28;20057;-74
2021/12/29 01:17:57;;;;;;;22.13;10.27;;;;;;;;;;8265641;28;20150;-74
2021/12/29 01:22:01;;;;;;;32.60;14.05;;;;;;;;;;8269498;28;20174;-74
2021/12/29 01:26:05;;;;;;;24.13;10.93;;;;;;;;;;8269583;28;20077;-74
2021/12/29 01:30:10;;;;;;;20.50;9.75;;;;;;;;;;8260883;28;20104;-75
2021/12/29 01:34:14;;;;;;;29.98;13.07;;;;;;;;;;8266616;28;20092;-76
2021/12/29 01:38:16;;;;;;;51.05;19.15;;;;;;;;;;8263764;28;20046;-74
2021/12/29 01:42:21;;;;;;;37.70;17.75;;;;;;;;;;8265649;28;20193;-75
2021/12/29 01:46:23;;;;;;;30.48;12.35;;;;;;;;;;8263342;28;20046;-75
2021/12/29 01:50:26;;;;;;;22.10;11.35;;;;;;;;;;8267309;28;20508;-77
2021/12/29 01:54:34;;;;;;;24.08;10.45;;;;;;;;;;8262643;28;20046;-76
2021/12/29 01:58:38;;;;;;;29.10;10.60;;;;;;;;;;8259456;28;20039;-76
2021/12/29 02:02:41;;;;;;;21.70;10.70;;;;;;;;;;8264839;28;20105;-76
2021/12/29 02:06:44;;;;;;;20.42;10.48;;;;;;;;;;8263289;28;20050;-76
2021/12/29 02:10:46;;;;;;;22.50;9.88;;;;;;;;;;8263420;28;20053;-76
2021/12/29 02:14:51;;;;;;;30.60;12.70;;;;;;;;;;8221395;28;20058;-76
2021/12/29 02:18:54;;;;;;;21.40;10.10;;;;;;;;;;8263586;28;20038;-76
2021/12/29 02:23:12;;;;;;;22.13;10.68;;;;;;;;;;8260049;28;20520;-76
2021/12/29 02:27:15;;;;;;;25.70;11.73;;;;;;;;;;8263466;28;20125;-77
2021/12/29 02:31:18;;;;;;;26.65;10.27;;;;;;;;;;8267164;28;20050;-76
2021/12/29 02:35:20;;;;;;;28.23;10.82;;;;;;;;;;8266706;28;20058;-76
2021/12/29 02:39:25;;;;;;;20.77;10.10;;;;;;;;;;8267343;28;20504;-72
2021/12/29 02:43:28;;;;;;;29.30;12.95;;;;;;;;;;8267053;28;20494;-75
2021/12/29 02:47:31;;;;;;;27.90;10.25;;;;;;;;;;8266521;28;20074;-74
2021/12/29 02:51:35;;;;;;;28.85;11.35;;;;;;;;;;8266506;28;20046;-74
2021/12/29 02:55:39;;;;;;;27.10;10.63;;;;;;;;;;8259361;28;20038;-73
2021/12/29 02:59:42;;;;;;;24.45;10.90;;;;;;;;;;8246788;28;20467;-75
2021/12/29 03:03:44;;;;;;;22.05;9.38;;;;;;;;;;8265956;28;20038;-76
2021/12/29 03:07:47;;;;;;;22.85;9.75;;;;;;;;;;8266414;28;20058;-74
2021/12/29 03:11:51;;;;;;;20.25;9.32;;;;;;;;;;8263093;28;20046;-75
2021/12/29 03:15:55;;;;;;;24.33;11.02;;;;;;;;;;8264010;28;20046;-75
2021/12/29 03:19:58;;;;;;;28.23;12.68;;;;;;;;;;8264747;28;20068;-74
2021/12/29 03:24:01;;;;;;;27.80;13.77;;;;;;;;;;8266118;28;20080;-76
2021/12/29 03:28:06;;;;;;;18.45;9.50;;;;;;;;;;8266157;28;20054;-74
2021/12/29 03:32:10;;;;;;;26.55;11.25;;;;;;;;;;8265145;28;20062;-75
2021/12/29 03:36:13;;;;;;;23.33;10.43;;;;;;;;;;8266368;28;20534;-75
2021/12/29 03:40:16;;;;;;;26.95;12.23;;;;;;;;;;8265158;28;20042;-73
2021/12/29 03:44:21;;;;;;;27.90;13.73;;;;;;;;;;8265384;28;20105;-75
2021/12/29 03:48:26;;;;;;;30.33;14.23;;;;;;;;;;8264913;28;20138;-76
2021/12/29 03:52:29;;;;;;;20.55;9.95;;;;;;;;;;8266073;28;20042;-75
2021/12/29 03:56:31;;;;;;;26.13;9.82;;;;;;;;;;8265226;28;20057;-75
2021/12/29 04:00:36;;;;;;;29.33;12.35;;;;;;;;;;8264973;28;20119;-74
2021/12/29 04:04:38;;;;;;;22.42;10.45;;;;;;;;;;8265613;28;20137;-75
2021/12/29 04:08:41;;;;;;;18.65;10.23;;;;;;;;;;8265102;28;20077;-75
2021/12/29 04:12:44;;;;;;;27.98;10.93;;;;;;;;;;8265886;28;20053;-75
2021/12/29 04:16:49;;;;;;;23.48;10.40;;;;;;;;;;8264567;28;20449;-74
2021/12/29 04:20:57;;;;;;;20.75;11.32;;;;;;;;;;8264928;28;20060;-73
2021/12/29 04:25:00;;;;;;;19.55;9.57;;;;;;;;;;8264618;28;20054;-74
2021/12/29 04:29:03;;;;;;;26.08;10.50;;;;;;;;;;8265053;28;20054;-74
2021/12/29 04:33:07;;;;;;;22.48;11.15;;;;;;;;;;8270560;28;20105;-74
2021/12/29 04:37:09;;;;;;;27.20;11.07;;;;;;;;;;8270762;28;20105;-74
2021/12/29 04:41:12;;;;;;;23.07;10.43;;;;;;;;;;8271111;28;20050;-74
2021/12/29 04:45:15;;;;;;;30.35;12.43;;;;;;;;;;8270328;28;20046;-73
2021/12/29 04:49:24;;;;;;;22.08;10.30;;;;;;;;;;8270453;28;20148;-75
2021/12/29 04:53:26;;;;;;;23.85;9.73;;;;;;;;;;8270407;28;20050;-74
2021/12/29 04:57:31;;;;;;;28.75;11.38;;;;;;;;;;8269869;28;20121;-74
2021/12/29 05:01:33;;;;;;;27.38;11.15;;;;;;;;;;8270031;28;20065;-74
2021/12/29 05:05:52;;;;;;;31.38;12.15;;;;;;;;;;8269947;28;20074;-74
2021/12/29 05:09:55;;;;;;;24.73;12.07;;;;;;;;;;8269876;28;20046;-75
2021/12/29 05:13:58;;;;;;;26.20;12.02;;;;;;;;;;8269958;28;20257;-74
2021/12/29 05:18:01;;;;;;;52.92;17.50;;;;;;;;;;8269641;28;20473;-74
2021/12/29 05:22:06;;;;;;;28.60;12.95;;;;;;;;;;8269730;28;20061;-73
2021/12/29 05:26:08;;;;;;;24.80;11.05;;;;;;;;;;8269145;28;20050;-74
2021/12/29 05:30:12;;;;;;;44.22;20.25;;;;;;;;;;8269662;28;20475;-74
2021/12/29 05:34:14;;;;;;;176.85;55.47;;;;;;;;;;8269441;28;20050;-75
2021/12/29 05:38:19;;;;;;;80.10;33.92;;;;;;;;;;8269356;28;20452;-74
2021/12/29 05:42:21;;;;;;;37.88;18.55;;;;;;;;;;8267922;28;20047;-73
2021/12/29 05:46:24;;;;;;;34.88;15.73;;;;;;;;;;8269609;28;20396;-75
2021/12/29 05:50:29;;;;;;;26.73;12.73;;;;;;;;;;8268233;28;20111;-75
2021/12/29 05:54:33;;;;;;;38.42;18.83;;;;;;;;;;8268096;28;20054;-74
2021/12/29 05:58:36;;;;;;;32.25;15.20;;;;;;;;;;8268564;28;20062;-73
2021/12/29 06:02:39;;;;;;;29.05;13.18;;;;;;;;;;8268161;28;20446;-76
2021/12/29 06:06:41;;;;;;;29.60;12.90;;;;;;;;;;8268509;28;20046;-72
2021/12/29 06:10:45;;;;;;;38.65;14.48;;;;;;;;;;8268222;28;20482;-75
2021/12/29 06:14:48;;;;;;;46.92;17.55;;;;;;;;;;8268216;28;20043;-75
2021/12/29 06:18:51;;;;;;;56.72;24.90;;;;;;;;;;8267790;28;20435;-75
2021/12/29 06:22:54;;;;;;;33.42;15.73;;;;;;;;;;8267056;28;20058;-75
2021/12/29 06:26:58;;;;;;;35.13;15.85;;;;;;;;;;8267802;28;20440;-75
2021/12/29 06:31:00;;;;;;;46.58;25.00;;;;;;;;;;8267789;28;20058;-75
2021/12/29 06:35:04;;;;;;;41.53;18.42;;;;;;;;;;8265121;28;20042;-75
2021/12/29 06:39:06;;;;;;;37.65;16.88;;;;;;;;;;8266723;28;20512;-75
2021/12/29 06:43:10;;;;;;;43.70;20.77;;;;;;;;;;8265840;28;20108;-74
2021/12/29 06:47:13;;;;;;;82.22;24.42;;;;;;;;;;8266005;28;20146;-75
2021/12/29 06:51:16;;;;;;;35.72;15.82;;;;;;;;;;8266015;28;20050;-74
2021/12/29 06:55:19;;;;;;;36.10;16.45;;;;;;;;;;8265967;28;20046;-73
2021/12/29 06:59:23;;;;;;;45.20;16.65;;;;;;;;;;8265756;28;20050;-74
2021/12/29 07:03:26;;;;;;;33.58;15.50;;;;;;;;;;8265981;28;20109;-75
2021/12/29 07:07:29;;;;;;;37.60;16.83;;;;;;;;;;8265857;28;20473;-74
2021/12/29 07:11:32;;;;;;;34.00;15.95;;;;;;;;;;8265564;28;20046;-76
2021/12/29 07:15:36;;;;;;;33.88;15.93;;;;;;;;;;8265310;28;20516;-75
2021/12/29 07:19:39;;;;;;;54.50;22.45;;;;;;;;;;8265277;28;20046;-75
2021/12/29 07:23:42;;;;;;;33.30;16.23;;;;;;;;;;8265199;28;20050;-75
2021/12/29 07:27:45;;;;;;;49.92;21.75;;;;;;;;;;8265305;28;20081;-74
2021/12/29 07:31:50;;;;;;;49.58;21.02;;;;;;;;;;8265758;28;20125;-75
2021/12/29 07:35:53;;;;;;;35.55;16.85;;;;;;;;;;8264684;28;20050;-73
2021/12/29 07:39:56;;;;;;;56.78;25.65;;;;;;;;;;8263701;28;20054;-74
2021/12/29 07:43:59;;;;;;;91.03;29.73;;;;;;;;;;8262986;28;20108;-74
2021/12/29 07:48:05;;;;;;;82.65;27.27;;;;;;;;;;8265512;28;20665;-74
2021/12/29 07:52:10;;;;;;;59.45;24.45;;;;;;;;;;8265032;28;20047;-75
2021/12/29 07:56:13;;;;;;;50.05;19.58;;;;;;;;;;8265864;28;20497;-75
2021/12/29 08:00:19;;;;;;;101.30;33.50;;;;;;;;;;8265487;28;20046;-73
2021/12/29 08:04:24;;;;;;;45.22;18.85;;;;;;;;;;8265624;28;20046;-74
2021/12/29 08:08:30;;;;;;;51.72;24.15;;;;;;;;;;8272057;28;20046;-75
2021/12/29 08:12:34;;;;;;;113.72;30.98;;;;;;;;;;8271962;28;20050;-73
2021/12/29 08:16:37;;;;;;;66.95;23.13;;;;;;;;;;8270495;28;20042;-73
2021/12/29 08:20:42;;;;;;;73.60;25.67;;;;;;;;;;8266546;28;20062;-75
2021/12/29 08:24:45;;;;;;;41.22;18.95;;;;;;;;;;8270525;28;20532;-73
2021/12/29 08:28:50;;;;;;;100.15;36.83;;;;;;;;;;8270651;28;20104;-74
2021/12/29 08:32:53;;;;;;;72.78;23.58;;;;;;;;;;8265906;28;20051;-77
2021/12/29 08:37:01;;;;;;;58.33;24.50;;;;;;;;;;8269016;28;20046;-77
2021/12/29 08:41:04;;;;;;;114.95;36.13;;;;;;;;;;8262014;28;20142;-74
2021/12/29 08:45:09;;;;;;;135.48;38.97;;;;;;;;;;8269153;28;20051;-74
2021/12/29 08:49:14;;;;;;;64.32;24.35;;;;;;;;;;8269825;28;20087;-74
2021/12/29 08:53:19;;;;;;;71.38;27.33;;;;;;;;;;8270218;28;20050;-73
2021/12/29 08:57:22;;;;;;;44.25;17.90;;;;;;;;;;8270105;28;20414;-74
2021/12/29 09:01:26;;;;;;;37.50;17.30;;;;;;;;;;8270297;28;20050;-74
2021/12/29 09:05:29;;;;;;;33.60;16.38;;;;;;;;;;8270332;28;20054;-75
2021/12/29 09:09:34;;;;;;;37.50;16.92;;;;;;;;;;8269776;28;20050;-75
2021/12/29 09:13:38;;;;;;;36.80;16.58;;;;;;;;;;8268334;28;20050;-75
2021/12/29 09:17:41;;;;;;;35.13;15.18;;;;;;;;;;8265300;28;20054;-74
2021/12/29 09:21:44;;;;;;;37.53;15.73;;;;;;;;;;8267059;28;20046;-73
2021/12/29 09:25:50;;;;;;;33.00;13.85;;;;;;;;;;8264636;28;20054;-76
2021/12/29 09:29:55;;;;;;;36.30;17.25;;;;;;;;;;8267875;28;20046;-76
2021/12/29 09:34:04;;;;;;;32.60;15.25;;;;;;;;;;8267897;28;20461;-76
2021/12/29 09:38:16;;;;;;;35.20;16.33;;;;;;;;;;8264923;28;20043;-75
2021/12/29 09:42:24;;;;;;;31.75;15.27;;;;;;;;;;8265886;28;20137;-75
2021/12/29 09:46:27;;;;;;;48.60;20.70;;;;;;;;;;8267988;28;20478;-75
2021/12/29 09:50:31;;;;;;;38.78;19.20;;;;;;;;;;8265463;28;20140;-73
2021/12/29 09:54:34;;;;;;;41.28;18.10;;;;;;;;;;8266814;28;20046;-76
2021/12/29 09:58:38;;;;;;;35.70;14.95;;;;;;;;;;8266276;28;20046;-74
2021/12/29 10:02:41;;;;;;;30.65;14.95;;;;;;;;;;8267207;28;20138;-75
2021/12/29 10:06:52;;;;;;;35.90;18.30;;;;;;;;;;8267552;28;20093;-76
2021/12/29 10:11:05;;;;;;;32.63;15.48;;;;;;;;;;8266076;28;20046;-76
2021/12/29 10:15:11;;;;;;;32.47;15.98;;;;;;;;;;8265528;28;20038;-75
2021/12/29 10:19:18;;;;;;;33.65;15.77;;;;;;;;;;8264457;28;20050;-75
2021/12/29 10:23:28;;;;;;;40.17;18.67;;;;;;;;;;8264576;28;20053;-76
2021/12/29 10:27:33;;;;;;;37.42;15.52;;;;;;;;;;8266058;28;20290;-77
2021/12/29 10:31:42;;;;;;;34.17;14.98;;;;;;;;;;8265480;28;20053;-75
2021/12/29 10:35:45;;;;;;;32.13;16.35;;;;;;;;;;8265559;28;20046;-76
2021/12/29 10:39:55;;;;;;;35.53;15.20;;;;;;;;;;8265436;28;20050;-76
2021/12/29 10:44:01;;;;;;;83.75;29.65;;;;;;;;;;8260955;28;20528;-75
2021/12/29 10:48:20;;;;;;;39.70;17.83;;;;;;;;;;8264569;28;20050;-75
2021/12/29 10:52:33;;;;;;;32.10;16.17;;;;;;;;;;8265486;28;20042;-75
2021/12/29 10:56:40;;;;;;;29.77;15.52;;;;;;;;;;8264207;28;20519;-76
2021/12/29 11:00:51;;;;;;;41.30;18.42;;;;;;;;;;8265174;28;20113;-76
2021/12/29 11:05:07;;;;;;;35.60;17.30;;;;;;;;;;8264437;28;20046;-74
2021/12/29 11:09:15;;;;;;;33.63;15.35;;;;;;;;;;8263411;28;20401;-74
2021/12/29 11:13:25;;;;;;;32.45;15.68;;;;;;;;;;8265675;28;20042;-74
2021/12/29 11:17:30;;;;;;;32.22;14.48;;;;;;;;;;8243851;28;20472;-73
2021/12/29 11:21:38;;;;;;;32.42;14.60;;;;;;;;;;8265405;28;20054;-74
2021/12/29 11:25:45;;;;;;;31.98;15.85;;;;;;;;;;8249823;28;20399;-74
2021/12/29 11:29:54;;;;;;;37.15;15.65;;;;;;;;;;8249574;28;20137;-74
2021/12/29 11:33:57;;;;;;;39.78;18.63;;;;;;;;;;8264702;28;20120;-74
2021/12/29 11:38:08;;;;;;;39.88;17.17;;;;;;;;;;8256730;28;20445;-73
2021/12/29 11:42:15;;;;;;;36.38;18.58;;;;;;;;;;8263665;28;20061;-73
2021/12/29 11:46:24;;;;;;;42.13;19.98;;;;;;;;;;8263113;28;20046;-74
2021/12/29 11:50:29;;;;;;;43.97;20.30;;;;;;;;;;8264114;28;20058;-74
2021/12/29 11:54:44;;;;;;;36.08;16.45;;;;;;;;;;8265147;28;20509;-74
2021/12/29 11:58:49;;;;;;;48.10;20.33;;;;;;;;;;8264283;28;20058;-74
2021/12/29 12:03:06;;;;;;;39.85;19.30;;;;;;;;;;8265008;28;20129;-74
2021/12/29 12:07:14;;;;;;;40.13;17.63;;;;;;;;;;8264779;28;20043;-73
2021/12/29 12:11:33;;;;;;;39.30;19.10;;;;;;;;;;8264952;28;20042;-74
2021/12/29 12:15:39;;;;;;;53.63;23.30;;;;;;;;;;8265032;28;20054;-74
2021/12/29 12:19:43;;;;;;;44.92;19.90;;;;;;;;;;8264909;28;20046;-74
2021/12/29 12:23:47;;;;;;;55.05;23.40;;;;;;;;;;8264773;28;20050;-74
2021/12/29 12:27:56;;;;;;;75.57;32.80;;;;;;;;;;8264863;28;20053;-74
2021/12/29 12:32:13;;;;;;;44.60;20.92;;;;;;;;;;8264842;28;20046;-74
2021/12/29 12:36:17;;;;;;;50.25;22.35;;;;;;;;;;8264959;28;20058;-74
2021/12/29 12:40:25;;;;;;;45.97;20.85;;;;;;;;;;8264749;28;20058;-74
2021/12/29 12:44:37;;;;;;;189.50;56.28;;;;;;;;;;8264614;28;20501;-74
2021/12/29 12:48:42;;;;;;;82.32;28.67;;;;;;;;;;8262795;28;20062;-74
2021/12/29 12:52:53;;;;;;;64.47;26.48;;;;;;;;;;8267866;28;20458;-75
2021/12/29 12:57:03;;;;;;;60.47;25.70;;;;;;;;;;8269852;28;20068;-74
2021/12/29 13:01:14;;;;;;;48.17;23.30;;;;;;;;;;8269151;28;20042;-74
2021/12/29 13:05:22;;;;;;;73.13;27.42;;;;;;;;;;8270158;28;20051;-75
2021/12/29 13:09:33;;;;;;;57.65;21.63;;;;;;;;;;8269905;28;20072;-74
2021/12/29 13:13:41;;;;;;;55.60;24.40;;;;;;;;;;8269772;28;20042;-75
2021/12/29 13:17:50;;;;;;;55.13;21.70;;;;;;;;;;8269253;28;20046;-74
2021/12/29 13:21:59;;;;;;;55.15;22.55;;;;;;;;;;8269177;28;20069;-73
2021/12/29 13:26:02;;;;;;;60.38;22.50;;;;;;;;;;8268779;28;20042;-74
2021/12/29 13:30:10;;;;;;;53.55;23.45;;;;;;;;;;8251545;28;20061;-75
2021/12/29 13:34:18;;;;;;;61.00;23.25;;;;;;;;;;8263872;28;20053;-75
2021/12/29 13:38:23;;;;;;;54.25;22.77;;;;;;;;;;8267807;28;20052;-73
2021/12/29 13:42:28;;;;;;;48.20;22.08;;;;;;;;;;8267859;28;20042;-75
2021/12/29 13:46:34;;;;;;;56.53;23.77;;;;;;;;;;8269175;28;20066;-76
2021/12/29 13:50:44;;;;;;;105.25;34.13;;;;;;;;;;8268213;28;20066;-76
2021/12/29 13:54:51;;;;;;;75.88;27.27;;;;;;;;;;8268718;28;20046;-75
2021/12/29 13:59:00;;;;;;;765.35;217.65;;;;;;;;;;8268341;28;20057;-76
2021/12/29 14:03:04;;;;;;;156.85;43.78;;;;;;;;;;8267472;28;20046;-76
2021/12/29 14:07:16;;;;;;;67.38;24.88;;;;;;;;;;8268116;28;20066;-75
2021/12/29 14:11:24;;;;;;;79.93;30.80;;;;;;;;;;8267912;28;20050;-74
2021/12/29 14:15:29;;;;;;;94.13;32.08;;;;;;;;;;8267533;28;20482;-76
2021/12/29 14:19:33;;;;;;;84.38;32.92;;;;;;;;;;8267086;28;20481;-76
2021/12/29 14:23:39;;;;;;;61.85;26.60;;;;;;;;;;8266922;28;20053;-74
2021/12/29 14:27:51;;;;;;;73.00;26.40;;;;;;;;;;8267451;28;20129;-76
2021/12/29 14:32:00;;;;;;;80.85;32.40;;;;;;;;;;8267611;28;20398;-75
2021/12/29 14:36:11;;;;;;;61.45;26.45;;;;;;;;;;8267206;28;20077;-75
2021/12/29 14:40:26;;;;;;;84.00;31.27;;;;;;;;;;8267492;28;20492;-76
2021/12/29 14:44:29;;;;;;;76.10;28.08;;;;;;;;;;8266235;28;20490;-76
2021/12/29 14:48:36;;;;;;;63.58;26.65;;;;;;;;;;8266715;28;20104;-78
2021/12/29 14:52:45;;;;;;;70.70;27.35;;;;;;;;;;8266694;28;20046;-76
2021/12/29 14:56:59;;;;;;;74.90;29.75;;;;;;;;;;8266231;28;20137;-78
2021/12/29 15:01:04;;;;;;;77.53;31.38;;;;;;;;;;8266855;28;20391;-77
2021/12/29 15:05:14;;;;;;;69.07;26.80;;;;;;;;;;8264775;28;20227;-77
2021/12/29 15:09:17;;;;;;;73.80;28.05;;;;;;;;;;8266055;28;20077;-77
2021/12/29 15:13:27;;;;;;;143.52;52.08;;;;;;;;;;8266051;28;20397;-77
2021/12/29 15:17:31;;;;;;;87.13;37.40;;;;;;;;;;8265824;28;20046;-76
2021/12/29 15:21:35;;;;;;;107.35;40.15;;;;;;;;;;8265154;28;20224;-77
2021/12/29 15:25:39;;;;;;;77.43;30.90;;;;;;;;;;8265847;28;20088;-76
2021/12/29 15:29:45;;;;;;;89.22;33.15;;;;;;;;;;8265408;28;20521;-75
2021/12/29 15:33:48;;;;;;;87.18;32.80;;;;;;;;;;8265005;28;20050;-74
2021/12/29 15:37:52;;;;;;;77.45;34.55;;;;;;;;;;8265549;28;20050;-74
2021/12/29 15:41:56;;;;;;;89.05;37.03;;;;;;;;;;8265900;28;20111;-74
2021/12/29 15:46:04;;;;;;;75.75;32.03;;;;;;;;;;8265307;28;20438;-74
2021/12/29 15:50:15;;;;;;;90.97;36.28;;;;;;;;;;8262576;28;20101;-76
2021/12/29 15:54:26;;;;;;;71.18;32.40;;;;;;;;;;8268043;28;20597;-78
2021/12/29 15:58:43;;;;;;;81.50;34.15;;;;;;;;;;8265229;28;20043;-77
2021/12/29 16:03:01;;;;;;;77.47;31.40;;;;;;;;;;8264740;28;20421;-76
2021/12/29 16:07:12;;;;;;;81.45;31.67;;;;;;;;;;8264528;28;20119;-75
2021/12/29 16:11:26;;;;;;;81.57;33.58;;;;;;;;;;8247170;28;20097;-76
2021/12/29 16:15:34;;;;;;;87.38;34.78;;;;;;;;;;8261024;28;20050;-76
2021/12/29 16:19:47;;;;;;;93.90;35.67;;;;;;;;;;8264947;28;20081;-77
2021/12/29 16:23:51;;;;;;;82.25;32.97;;;;;;;;;;8263004;28;20840;-75
2021/12/29 16:27:55;;;;;;;92.60;38.58;;;;;;;;;;8265186;28;20141;-77
2021/12/29 16:32:04;;;;;;;122.82;47.53;;;;;;;;;;8268896;28;20043;-78
2021/12/29 16:36:14;;;;;;;110.28;43.05;;;;;;;;;;8269209;28;20051;-77
2021/12/29 16:40:56;;;;;;;;;;;;;;;;;;8270199;28;20125;-76
2021/12/29 16:45:16;;;;;;;146.85;48.65;;;;;;;;;;8240485;28;19929;-77
2021/12/29 16:49:26;;;;;;;109.55;40.80;;;;;;;;;;8265182;28;20524;-73
2021/12/29 16:53:35;;;;;;;140.25;45.92;;;;;;;;;;8268358;28;20125;-74
2021/12/29 16:57:43;;;;;;;71.57;30.05;;;;;;;;;;8268985;28;20058;-74
2021/12/29 17:01:47;;;;;;;114.53;40.50;;;;;;;;;;8269092;28;20053;-73
2021/12/29 17:05:51;;;;;;;78.47;33.50;;;;;;;;;;8269448;28;20058;-75
2021/12/29 17:10:01;;;;;;;190.75;62.20;;;;;;;;;;8264841;28;20527;-74
2021/12/29 17:14:10;;;;;;;116.10;41.60;;;;;;;;;;8267506;28;20043;-78
2021/12/29 17:18:15;;;;;;;101.70;41.45;;;;;;;;;;8267390;28;20058;-74
2021/12/29 17:22:19;;;;;;;116.97;43.03;;;;;;;;;;8269134;28;20466;-76
2021/12/29 17:26:24;;;;;;;112.40;43.20;;;;;;;;;;8268809;28;20145;-75
2021/12/29 17:30:28;;;;;;;92.60;37.15;;;;;;;;;;8268679;28;20053;-75
2021/12/29 17:34:31;;;;;;;111.40;42.78;;;;;;;;;;8268284;28;20042;-74
2021/12/29 17:38:33;;;;;;;102.80;42.65;;;;;;;;;;8267786;28;20073;-74
2021/12/29 17:42:39;;;;;;;104.70;43.50;;;;;;;;;;8268910;28;20410;-74
2021/12/29 17:46:42;;;;;;;117.07;41.55;;;;;;;;;;8266684;28;20077;-75
2021/12/29 17:50:49;;;;;;;127.22;47.67;;;;;;;;;;8268445;28;20493;-74
2021/12/29 17:54:52;;;;;;;188.18;69.13;;;;;;;;;;8269449;28;20470;-73
2021/12/29 17:58:58;;;;;;;114.18;46.05;;;;;;;;;;8269307;28;20046;-75
2021/12/29 18:03:03;;;;;;;117.57;45.83;;;;;;;;;;8267717;28;20614;-77
2021/12/29 18:07:07;;;;;;;103.95;38.97;;;;;;;;;;8267330;28;20050;-76
2021/12/29 18:11:12;;;;;;;134.13;47.33;;;;;;;;;;8268418;28;20058;-75
2021/12/29 18:15:17;;;;;;;144.00;52.08;;;;;;;;;;8267341;28;20046;-74
2021/12/29 18:19:21;;;;;;;115.00;42.83;;;;;;;;;;8266748;28;20101;-75
2021/12/29 18:23:27;;;;;;;101.00;40.90;;;;;;;;;;8260733;28;20053;-75
2021/12/29 18:27:38;;;;;;;94.72;36.22;;;;;;;;;;8265845;28;20049;-77
2021/12/29 18:32:00;;;;;;;139.60;56.05;;;;;;;;;;8242215;28;20070;-75
2021/12/29 18:36:08;;;;;;;128.48;49.30;;;;;;;;;;8261829;28;20410;-76
2021/12/29 18:40:40;;;;;;;118.30;46.50;;;;;;;;;;8267082;28;20502;-74
2021/12/29 18:44:51;;;;;;;135.25;47.78;;;;;;;;;;8266201;28;20050;-77
2021/12/29 18:49:04;;;;;;;114.13;42.83;;;;;;;;;;8234084;28;20058;-76
2021/12/29 18:53:11;;;;;;;134.32;47.75;;;;;;;;;;8234609;28;20053;-75
2021/12/29 18:57:17;;;;;;;234.45;74.88;;;;;;;;;;8252052;28;20065;-77
2021/12/29 19:01:31;;;;;;;130.07;48.33;;;;;;;;;;8237479;28;20054;-77
2021/12/29 19:05:40;;;;;;;143.18;49.30;;;;;;;;;;8263959;28;20141;-77
2021/12/29 19:09:47;;;;;;;144.85;54.78;;;;;;;;;;8263437;28;20072;-77
2021/12/29 19:13:54;;;;;;;108.78;40.63;;;;;;;;;;8265555;28;20050;-75
2021/12/29 19:18:17;;;;;;;125.45;45.05;;;;;;;;;;8265405;28;20565;-77
2021/12/29 19:22:28;;;;;;;129.75;45.67;;;;;;;;;;8264354;28;20050;-75
2021/12/29 19:26:34;;;;;;;150.63;46.83;;;;;;;;;;8263079;28;20038;-75
2021/12/29 19:30:50;;;;;;;150.32;50.55;;;;;;;;;;8263726;28;20479;-75
2021/12/29 19:34:53;;;;;;;274.75;76.70;;;;;;;;;;8265008;28;20042;-76
2021/12/29 19:39:01;;;;;;;236.25;73.18;;;;;;;;;;8265007;28;20051;-75
2021/12/29 19:43:12;;;;;;;128.07;46.05;;;;;;;;;;8263536;28;20066;-77
2021/12/29 19:47:19;;;;;;;109.88;43.33;;;;;;;;;;8263661;28;20051;-74
2021/12/29 19:51:24;;;;;;;118.20;44.90;;;;;;;;;;8265209;28;20050;-75
2021/12/29 19:55:43;;;;;;;163.02;56.05;;;;;;;;;;8263811;28;20086;-75
2021/12/29 20:00:12;;;;;;;159.23;54.78;;;;;;;;;;8261581;28;20101;-74
2021/12/29 20:04:19;;;;;;;158.55;57.70;;;;;;;;;;8254439;28;20051;-78
2021/12/29 20:08:26;;;;;;;162.07;53.22;;;;;;;;;;8251144;28;20097;-78
2021/12/29 20:12:35;;;;;;;150.93;52.78;;;;;;;;;;8248873;28;20061;-76
2021/12/29 20:16:42;;;;;;;179.32;55.15;;;;;;;;;;8248790;28;20047;-77
2021/12/29 20:20:46;;;;;;;178.38;63.53;;;;;;;;;;8268426;28;20414;-77
2021/12/29 20:24:51;;;;;;;137.45;44.10;;;;;;;;;;8269497;28;20201;-75
2021/12/29 20:29:14;;;;;;;180.32;51.83;;;;;;;;;;8263311;28;20457;-77
2021/12/29 20:33:26;;;;;;;166.07;51.28;;;;;;;;;;8266221;28;20126;-75
2021/12/29 20:37:32;;;;;;;129.35;45.60;;;;;;;;;;8266324;28;20498;-75
2021/12/29 20:41:38;;;;;;;156.48;48.17;;;;;;;;;;8266550;28;20129;-75
2021/12/29 20:45:48;;;;;;;185.20;55.08;;;;;;;;;;8269360;28;20081;-75
2021/12/29 20:49:59;;;;;;;185.35;56.80;;;;;;;;;;8268158;28;20061;-76
2021/12/29 20:54:11;;;;;;;156.48;48.47;;;;;;;;;;8269195;28;20437;-77
2021/12/29 20:58:19;;;;;;;;;;;;;;;;;;8267124;28;20042;-76
2021/12/29 21:02:26;;;;;;;209.38;56.03;;;;;;;;;;8266584;28;19921;-76
2021/12/29 21:06:33;;;;;;;167.48;52.20;;;;;;;;;;8260405;28;20050;-75
2021/12/29 21:10:42;;;;;;;171.48;51.88;;;;;;;;;;8269131;28;20050;-74
2021/12/29 21:14:51;;;;;;;190.68;54.45;;;;;;;;;;8268079;28;20491;-73
2021/12/29 21:19:01;;;;;;;147.10;43.40;;;;;;;;;;8267486;28;20050;-74
2021/12/29 21:23:08;;;;;;;183.43;51.08;;;;;;;;;;8266931;28;20096;-77
2021/12/29 21:27:16;;;;;;;169.18;47.58;;;;;;;;;;8269989;28;20497;-76
2021/12/29 21:31:22;;;;;;;186.30;54.67;;;;;;;;;;8269844;28;20046;-76
2021/12/29 21:35:59;;;;;;;187.77;51.45;;;;;;;;;;8269138;28;20490;-75
2021/12/29 21:40:24;;;;;;;146.50;40.83;;;;;;;;;;8269070;28;20034;-77
2021/12/29 21:44:28;;;;;;;144.07;42.33;;;;;;;;;;8269327;28;20047;-76
2021/12/29 21:48:33;;;;;;;171.55;45.38;;;;;;;;;;8267422;28;20497;-76
2021/12/29 21:52:40;;;;;;;137.65;43.55;;;;;;;;;;8261226;28;20049;-76
2021/12/29 21:56:52;;;;;;;196.10;47.97;;;;;;;;;;8267948;28;20046;-76
2021/12/29 22:01:02;;;;;;;157.82;43.65;;;;;;;;;;8267317;28;20034;-76
2021/12/29 22:05:09;;;;;;;152.07;46.88;;;;;;;;;;8267376;28;20042;-77
2021/12/29 22:09:25;;;;;;;154.15;41.63;;;;;;;;;;8265189;28;20046;-77
2021/12/29 22:13:33;;;;;;;147.90;42.38;;;;;;;;;;8259009;28;20057;-75
2021/12/29 22:17:37;;;;;;;187.32;50.47;;;;;;;;;;8267831;28;20051;-76
2021/12/29 22:21:41;;;;;;;290.23;81.68;;;;;;;;;;8268279;28;20042;-77
2021/12/29 22:25:47;;;;;;;236.00;64.00;;;;;;;;;;8266831;28;20413;-76
2021/12/29 22:29:50;;;;;;;162.27;46.83;;;;;;;;;;8266825;28;20042;-76
2021/12/29 22:33:54;;;;;;;311.92;86.82;;;;;;;;;;8264881;28;20056;-77
2021/12/29 22:38:00;;;;;;;141.93;45.08;;;;;;;;;;8264080;28;20495;-75
2021/12/29 22:42:06;;;;;;;126.40;41.40;;;;;;;;;;8262945;28;20054;-76
2021/12/29 22:46:10;;;;;;;156.15;45.85;;;;;;;;;;8266472;28;20141;-76
2021/12/29 22:50:18;;;;;;;145.82;45.58;;;;;;;;;;8265913;28;20128;-76
2021/12/29 22:54:21;;;;;;;217.20;63.47;;;;;;;;;;8266471;28;20077;-76
2021/12/29 22:58:26;;;;;;;154.65;46.33;;;;;;;;;;8266859;28;20051;-75
2021/12/29 23:02:29;;;;;;;180.60;54.47;;;;;;;;;;8266418;28;20596;-76
2021/12/29 23:06:33;;;;;;;303.52;80.47;;;;;;;;;;8265808;28;20049;-76
2021/12/29 23:10:36;;;;;;;220.25;56.92;;;;;;;;;;8265750;28;20046;-76
2021/12/29 23:14:43;;;;;;;233.73;64.97;;;;;;;;;;8265965;28;20051;-75
2021/12/29 23:18:46;;;;;;;182.23;52.53;;;;;;;;;;8265333;28;20100;-75
2021/12/29 23:22:57;;;;;;;163.65;48.70;;;;;;;;;;8266209;28;20046;-76
2021/12/29 23:31:21;;;;;;;150.30;44.80;;;;;;;;;;8265476;28;20066;-77
2021/12/29 23:35:24;;;;;;;150.23;42.50;;;;;;;;;;8264629;28;20109;-75
2021/12/29 23:39:27;;;;;;;146.07;45.97;;;;;;;;;;8265310;28;20108;-75
2021/12/29 23:43:31;;;;;;;148.07;43.75;;;;;;;;;;8264249;28;20437;-74
2021/12/29 23:47:35;;;;;;;155.48;45.42;;;;;;;;;;8264470;28;20142;-76
2021/12/29 23:51:38;;;;;;;231.07;71.93;;;;;;;;;;8265292;28;20051;-76